Terminal Aerodrome Forecast
Issued by NWS

Home | Current Version | Previous Version | Text Only | Print | Product List | Glossary On
Versions: 1 2 3 4 5 6 7 8 9 10 11 12 13 14 15 16 17 18 19 20 21 22 23 24 25 26 27 28
000
FTUS45 KGJT 140520
TAFTEX
TAF
KTEX 140520Z 1406/1506 14003KT P6SM FEW110 BKN200
     FM140800 15004KT P6SM FEW250
     FM141900 29007KT P6SM SCT090 SCT200
     FM150200 14004KT P6SM VCTS SCT090CB BKN200=

USA.gov is the U.S. government's official web portal to all federal, state and local government web resources and services.